Time;durP1;ratioP1;P1;durP2;ratioP2;P2;SDS_P1;SDS_P2;PMS_P1;PMS_P2;Temp;Humidity;BMP_temperature;BMP_pressure;BME280_temperature;BME280_humidity;BME280_pressure;Samples;Min_cycle;Max_cycle;Signal;HPM_P1;HPM_P2
2022/10/14 00:01:30;;;;;;;;;13.67;10.67;;;;;15.80;85.98;101034.53;5034484;28;45635;-67
2022/10/14 00:03:56;;;;;;;;;12.67;10.00;;;;;15.78;85.93;101027.50;5035231;28;45356;-69
2022/10/14 00:06:25;;;;;;;;;8.67;7.00;;;;;15.78;86.10;101028.41;5035317;28;45320;-68
2022/10/14 00:08:51;;;;;;;;;16.33;10.67;;;;;15.78;86.29;101040.69;5017631;28;45385;-68
2022/10/14 00:11:20;;;;;;;;;12.33;9.33;;;;;15.81;86.36;101038.03;5016543;28;46523;-67
2022/10/14 00:13:46;;;;;;;;;11.33;8.33;;;;;15.71;86.46;101024.09;5020954;28;45776;-68
2022/10/14 00:16:18;;;;;;;;;9.67;8.00;;;;;15.76;86.25;101026.69;5017285;28;45506;-68
2022/10/14 00:18:44;;;;;;;;;9.33;8.67;;;;;15.68;86.56;101014.41;5016827;28;45909;-68
2022/10/14 00:21:10;;;;;;;;;10.33;8.67;;;;;15.82;86.66;101034.50;5034458;28;45872;-68
2022/10/14 00:23:35;;;;;;;;;7.33;7.33;;;;;15.77;86.69;101031.91;5019870;28;45420;-68
2022/10/14 00:26:01;;;;;;;;;8.33;7.67;;;;;15.77;86.78;101031.03;5035110;28;45552;-67
2022/10/14 00:28:26;;;;;;;;;7.67;6.00;;;;;15.69;86.46;101002.94;5036702;28;45536;-68
2022/10/14 00:31:00;;;;;;;;;10.67;6.67;;;;;15.81;86.78;101023.06;5003798;28;46535;-68
2022/10/14 00:33:27;;;;;;;;;6.33;6.33;;;;;15.81;86.37;101015.13;5034293;28;45511;-68
2022/10/14 00:36:00;;;;;;;;;10.00;6.33;;;;;15.77;86.33;101005.50;5038850;28;45430;-68
2022/10/14 00:38:26;;;;;;;;;6.67;6.67;;;;;15.77;86.79;101002.84;5038935;28;45456;-68
2022/10/14 00:40:53;;;;;;;;;7.33;5.00;;;;;15.72;86.35;100982.72;5036688;28;46547;-68
2022/10/14 00:43:19;;;;;;;;;7.33;6.00;;;;;15.81;86.18;100991.38;5033807;28;45475;-68
2022/10/14 00:45:45;;;;;;;;;5.33;5.33;;;;;15.78;86.51;100983.50;5034824;28;45808;-68
2022/10/14 00:48:12;;;;;;;;;7.00;5.00;;;;;15.87;85.77;100993.91;5034039;28;45546;-68
2022/10/14 00:50:42;;;;;;;;;6.00;5.67;;;;;15.76;86.64;100981.78;5049166;28;46841;-68
2022/10/14 00:53:10;;;;;;;;;7.33;5.33;;;;;15.74;87.06;100996.78;5033722;28;45348;-69
2022/10/14 00:55:38;;;;;;;;;4.00;4.00;;;;;15.79;86.64;100989.66;5034636;28;45419;-68
2022/10/14 00:58:05;;;;;;;;;7.00;5.33;;;;;15.77;86.71;100988.78;5034531;28;45647;-68
2022/10/14 01:00:31;;;;;;;;;4.33;4.33;;;;;15.77;86.70;100981.72;5033809;28;45410;-68
2022/10/14 01:02:57;;;;;;;;;5.67;5.67;;;;;15.76;86.53;100971.22;5033393;28;45546;-67
2022/10/14 01:05:29;;;;;;;;;8.00;7.33;;;;;15.76;87.01;100987.06;5019847;28;45526;-68
2022/10/14 01:08:27;;;;;;;;;7.67;7.00;;;;;15.67;87.00;100973.06;5016249;28;45509;-68
2022/10/14 01:11:17;;;;;;;;;9.67;6.67;;;;;15.82;86.52;100990.44;5022328;28;45952;-68
2022/10/14 01:14:08;;;;;;;;;4.67;4.67;;;;;15.83;86.71;100980.78;5032113;28;45442;-67
2022/10/14 01:16:59;;;;;;;;;5.33;5.00;;;;;15.89;85.93;100978.91;5033709;28;45387;-67
2022/10/14 01:20:02;;;;;;;;;8.33;5.00;;;;;15.86;86.26;100972.81;5049760;28;45791;-68
2022/10/14 01:22:39;;;;;;;;;5.00;4.33;;;;;15.88;86.02;100971.88;5033483;28;46057;-67
2022/10/14 01:25:36;;;;;;;;;5.67;4.33;;;;;15.81;86.20;100959.66;5042821;28;45438;-68
2022/10/14 01:28:07;;;;;;;;;4.00;3.00;;;;;15.88;85.89;100965.72;5033785;28;45883;-69
2022/10/14 01:30:44;;;;;;;;;5.00;4.00;;;;;15.87;85.60;100959.59;5015630;28;45674;-68
2022/10/14 01:33:23;;;;;;;;;3.00;2.67;;;;;15.90;86.09;100951.59;5032843;28;46189;-68
2022/10/14 01:36:09;;;;;;;;;3.00;2.33;;;;;15.90;85.87;100951.59;5030579;28;45271;-68
2022/10/14 01:38:46;;;;;;;;;4.00;3.00;;;;;15.93;85.43;100953.31;5041892;28;46095;-68
2022/10/14 01:41:30;;;;;;;;;2.00;2.00;;;;;15.97;85.28;100957.66;5021855;28;45536;-68
2022/10/14 01:44:01;;;;;;;;;1.00;1.00;;;;;15.92;85.38;100948.03;5035865;28;45464;-67
2022/10/14 01:46:28;;;;;;;;;5.00;3.00;;;;;15.95;85.42;100958.59;5034762;28;45582;-68
2022/10/14 01:49:00;;;;;;;;;4.00;4.00;;;;;15.88;85.59;100944.59;5019101;28;45508;-67
2022/10/14 01:51:32;;;;;;;;;3.33;3.33;;;;;15.88;85.78;100942.81;5033714;28;45488;-68
2022/10/14 01:54:12;;;;;;;;;2.33;2.33;;;;;15.86;85.91;100939.34;5050683;28;47713;-68
2022/10/14 01:56:39;;;;;;;;;3.00;3.00;;;;;15.92;85.54;100948.03;5015511;28;45521;-68
2022/10/14 01:59:09;;;;;;;;;4.00;4.00;;;;;15.88;85.90;100937.53;5032878;28;45449;-68
2022/10/14 02:01:35;;;;;;;;;3.67;3.67;;;;;15.90;86.04;100941.03;5037424;28;45501;-67
2022/10/14 02:04:01;;;;;;;;;5.00;5.00;;;;;15.94;85.59;100949.75;5036012;28;47109;-67
2022/10/14 02:06:37;;;;;;;;;6.67;2.67;;;;;15.95;85.60;100933.03;5034967;28;45363;-67
2022/10/14 02:09:24;;;;;;;;;2.67;2.67;;;;;16.04;85.41;100940.81;5033562;28;45486;-67
2022/10/14 02:12:09;;;;;;;;;5.67;4.00;;;;;16.06;85.08;100939.00;5015515;28;45564;-68
2022/10/14 02:14:57;;;;;;;;;4.00;3.33;;;;;16.14;84.51;100940.66;5032845;28;46734;-68
2022/10/14 02:17:45;;;;;;;;;5.00;4.00;;;;;16.19;84.38;100936.16;5035410;28;45626;-67
2022/10/14 02:20:36;;;;;;;;;4.67;2.67;;;;;16.16;84.38;100915.03;5036483;28;45426;-67
2022/10/14 02:23:18;;;;;;;;;7.00;5.00;;;;;16.14;84.61;100912.44;5030560;28;45569;-67
2022/10/14 02:25:46;;;;;;;;;6.33;4.67;;;;;16.18;84.58;100918.53;5036242;28;46249;-67
2022/10/14 02:28:17;;;;;;;;;6.00;4.00;;;;;16.19;84.44;100920.28;5016153;28;45313;-68
2022/10/14 02:30:49;;;;;;;;;4.00;4.00;;;;;16.20;84.38;100922.03;5005325;28;45545;-68
2022/10/14 02:33:19;;;;;;;;;4.33;4.33;;;;;16.25;83.64;100929.00;5027250;28;45737;-68
2022/10/14 02:35:48;;;;;;;;;3.00;3.00;;;;;16.22;83.78;100907.88;5017381;28;47320;-68
2022/10/14 02:38:15;;;;;;;;;5.33;4.00;;;;;16.26;84.00;100917.50;5056622;28;45378;-67
2022/10/14 02:40:45;;;;;;;;;4.00;4.00;;;;;16.29;84.07;100906.00;5040632;28;45276;-68
2022/10/14 02:43:11;;;;;;;;;4.33;3.00;;;;;16.16;83.62;100886.88;5029347;28;45369;-67
2022/10/14 02:45:39;;;;;;;;;11.00;5.67;;;;;16.23;83.82;100901.72;5016063;28;46204;-68
2022/10/14 02:48:06;;;;;;;;;5.67;4.67;;;;;16.27;83.15;100902.50;5035282;28;45339;-68
2022/10/14 02:50:32;;;;;;;;;5.00;4.00;;;;;16.26;83.20;100887.56;5017794;28;45773;-67
2022/10/14 02:52:57;;;;;;;;;4.67;4.67;;;;;16.34;83.48;100896.19;5017417;28;46069;-69
2022/10/14 02:55:23;;;;;;;;;6.33;5.67;;;;;16.35;83.07;100891.78;5035847;28;46104;-68
2022/10/14 02:57:49;;;;;;;;;7.00;4.00;;;;;16.32;83.06;100895.34;5036042;28;45530;-68
2022/10/14 03:00:15;;;;;;;;;5.00;4.00;;;;;16.36;82.75;100894.41;5037552;28;45416;-69
2022/10/14 03:02:40;;;;;;;;;5.00;4.33;;;;;16.36;82.83;100889.13;5040972;28;45367;-69
2022/10/14 03:05:06;;;;;;;;;4.67;4.00;;;;;16.44;82.55;100908.34;5037894;28;45770;-68
2022/10/14 03:07:32;;;;;;;;;5.67;4.00;;;;;16.43;82.86;100901.31;5018116;28;45556;-68
2022/10/14 03:09:57;;;;;;;;;6.33;4.33;;;;;16.50;82.36;100915.28;5036548;28;45533;-68
2022/10/14 03:12:24;;;;;;;;;5.33;5.33;;;;;16.45;82.39;100894.22;5036613;28;45577;-68
2022/10/14 03:14:49;;;;;;;;;6.67;5.00;;;;;16.52;82.14;100908.22;5038221;28;46239;-67
2022/10/14 08:47:39;;;;;;;;;2.00;2.00;;;;;14.81;85.12;100954.88;5068958;27;45575;-67
2022/10/14 08:50:27;;;;;;;;;1.67;1.00;;;;;14.99;86.01;100957.28;5069491;28;45905;-67
2022/10/14 08:53:32;;;;;;;;;2.00;2.00;;;;;15.30;83.93;100948.09;5069231;27;45394;-66
2022/10/14 08:55:59;;;;;;;;;1.67;1.67;;;;;15.50;83.27;100950.47;5068289;28;45548;-67
2022/10/14 08:58:34;;;;;;;;;1.00;1.00;;;;;15.71;81.83;100960.72;5070372;28;46065;-67
2022/10/14 09:01:09;;;;;;;;;1.00;1.00;;;;;15.87;81.27;100959.59;5072740;28;45600;-67
2022/10/14 09:03:35;;;;;;;;;0.67;0.67;;;;;15.93;80.54;100937.47;5073628;28;45271;-68
2022/10/14 09:06:06;;;;;;;;;1.00;0.67;;;;;16.17;79.64;100951.16;5065892;28;45592;-67
2022/10/14 09:08:41;;;;;;;;;2.00;1.67;;;;;16.28;78.96;100951.84;5069556;28;45848;-67
2022/10/14 09:11:19;;;;;;;;;2.00;1.00;;;;;16.39;78.44;100954.28;5058861;28;45671;-67
2022/10/14 09:13:52;;;;;;;;;2.00;2.00;;;;;16.43;78.49;100948.91;5070645;28;45430;-65
2022/10/14 09:16:28;;;;;;;;;1.00;1.00;;;;;16.55;78.09;100945.16;5069227;28;45397;-66
2022/10/14 09:18:57;;;;;;;;;2.00;2.00;;;;;16.59;78.00;100945.97;5068063;28;47702;-67
2022/10/14 09:21:29;;;;;;;;;1.00;1.00;;;;;16.67;78.38;100933.47;5069959;28;45526;-67
2022/10/14 09:24:00;;;;;;;;;5.33;3.00;;;;;16.69;77.45;100923.72;5067810;28;45647;-67
2022/10/14 09:26:43;;;;;;;;;2.00;2.00;;;;;16.67;77.27;100913.16;5071748;27;45402;-70
2022/10/14 09:29:21;;;;;;;;;3.00;2.00;;;;;16.70;77.12;100922.81;5073288;28;45437;-67
2022/10/14 09:31:47;;;;;;;;;3.33;2.00;;;;;16.56;77.05;100893.13;5073140;28;45581;-66
2022/10/14 09:34:23;;;;;;;;;4.00;2.00;;;;;16.73;76.88;100920.13;5071497;28;45362;-68
2022/10/14 09:36:50;;;;;;;;;4.33;2.00;;;;;16.46;77.39;100880.09;5086083;27;45533;-69
2022/10/14 09:39:16;;;;;;;;;5.00;4.00;;;;;16.69;76.73;100915.78;5069473;28;45634;-68
2022/10/14 09:41:46;;;;;;;;;2.00;2.00;;;;;16.65;76.64;100898.25;5088915;27;45349;-68
2022/10/14 09:44:21;;;;;;;;;3.00;2.00;;;;;16.85;76.80;100924.34;5070296;28;45733;-69
2022/10/14 09:46:58;;;;;;;;;4.33;2.33;;;;;16.87;76.72;100923.38;5083979;27;45633;-68
2022/10/14 09:49:46;;;;;;;;;2.00;2.00;;;;;16.91;77.42;100918.88;5090475;27;46622;-68
2022/10/14 09:52:30;;;;;;;;;3.33;3.33;;;;;16.93;77.37;100923.25;5077117;27;45446;-69
2022/10/14 09:54:59;;;;;;;;;2.00;2.00;;;;;16.90;76.37;100910.09;5091860;27;45365;-67
2022/10/14 09:57:26;;;;;;;;;4.00;3.00;;;;;16.94;76.44;100925.00;5086389;27;45355;-67
2022/10/14 10:00:05;;;;;;;;;4.33;3.00;;;;;16.99;76.69;100929.31;5077020;28;45334;-68
2022/10/14 10:02:40;;;;;;;;;5.00;4.00;;;;;16.91;76.30;100914.47;5058213;28;45706;-67
2022/10/14 10:05:26;;;;;;;;;3.00;3.00;;;;;17.02;76.40;100918.69;5075753;27;45321;-66
2022/10/14 10:08:12;;;;;;;;;4.00;3.00;;;;;17.10;76.54;100919.38;5058098;28;45398;-68
2022/10/14 10:10:38;;;;;;;;;2.67;2.00;;;;;17.14;75.95;100895.44;5075433;27;45422;-67
2022/10/14 10:13:20;;;;;;;;;3.33;3.00;;;;;17.42;75.40;100918.66;5080071;28;45422;-67
2022/10/14 10:15:57;;;;;;;;;4.00;3.00;;;;;17.42;74.73;100923.06;5079967;27;45360;-66
2022/10/14 10:18:23;;;;;;;;;3.00;3.00;;;;;17.46;75.08;100917.63;5062171;28;45295;-66
2022/10/14 10:21:06;;;;;;;;;5.67;3.00;;;;;17.51;74.87;100907.84;5079691;27;46240;-67
2022/10/14 10:23:34;;;;;;;;;3.00;3.00;;;;;17.46;74.39;100898.25;5079708;28;45591;-65
2022/10/14 10:26:20;;;;;;;;;2.67;2.67;;;;;17.48;74.12;100914.97;5078577;28;45418;-66
2022/10/14 10:28:48;;;;;;;;;4.00;3.00;;;;;17.41;74.17;100903.66;5075834;27;45563;-66
2022/10/14 10:31:23;;;;;;;;;3.00;3.00;;;;;17.53;74.26;100907.78;5074919;27;46040;-66
2022/10/14 10:34:06;;;;;;;;;3.00;3.00;;;;;17.62;74.42;100901.41;5060868;28;45465;-67
2022/10/14 10:36:47;;;;;;;;;3.00;3.00;;;;;17.68;73.58;100902.13;5077758;28;45525;-67
2022/10/14 10:39:30;;;;;;;;;4.00;3.00;;;;;17.71;73.33;100907.34;5062284;28;45603;-65
2022/10/14 10:42:11;;;;;;;;;5.00;3.67;;;;;17.85;72.74;100900.88;5060599;28;47827;-67
2022/10/14 10:44:57;;;;;;;;;3.67;3.67;;;;;17.91;72.34;100896.25;5072924;28;45508;-67
2022/10/14 10:47:30;;;;;;;;;3.33;2.33;;;;;17.94;71.98;100895.34;5077488;27;46030;-67
2022/10/14 10:50:14;;;;;;;;;3.67;3.00;;;;;17.91;71.78;100883.00;5077745;28;45623;-66
2022/10/14 10:52:59;;;;;;;;;3.00;3.00;;;;;17.91;71.76;100883.00;5077987;27;45497;-67
2022/10/14 10:55:34;;;;;;;;;3.00;3.00;;;;;17.86;71.99;100881.41;5074629;28;45414;-66
2022/10/14 10:58:16;;;;;;;;;4.00;3.00;;;;;17.88;72.24;100876.94;5073101;28;45346;-66
2022/10/14 11:01:03;;;;;;;;;3.00;3.00;;;;;17.92;71.95;100854.75;5075031;28;45819;-67
2022/10/14 11:04:14;;;;;;;;;6.00;3.33;;;;;17.89;71.44;100845.09;5077341;28;45551;-67
2022/10/14 11:12:58;;;;;;;;;4.67;3.33;;;;;17.66;71.89;100847.44;5078997;27;45402;-67
2022/10/14 11:15:40;;;;;;;;;7.67;7.33;;;;;17.60;72.91;100846.66;5060088;28;47014;-65
2022/10/14 11:18:22;;;;;;;;;8.33;7.33;;;;;17.47;73.37;100847.03;5060615;28;45369;-66
2022/10/14 11:21:02;;;;;;;;;11.33;8.67;;;;;17.44;73.12;100847.09;5067116;28;45329;-67
2022/10/14 11:23:41;;;;;;;;;6.00;4.00;;;;;17.30;73.46;100831.56;5064337;28;45491;-67
2022/10/14 11:27:07;;;;;;;;;3.67;3.67;;;;;17.29;73.35;100838.63;5058791;28;46203;-67
2022/10/14 11:30:00;;;;;;;;;36.67;33.00;;;;;17.29;76.15;100820.09;5020843;28;45547;-68
2022/10/14 11:32:37;;;;;;;;;45.50;34.75;;;;;17.47;74.54;100821.44;5031537;28;45467;-68
2022/10/14 11:35:08;;;;;;;;;28.67;24.67;;;;;17.53;74.31;100815.97;5048055;28;45567;-67
2022/10/14 11:37:46;;;;;;;;;18.00;18.00;;;;;17.50;74.39;100815.19;5074300;28;46291;-67
2022/10/14 11:40:38;;;;;;;;;14.33;12.33;;;;;17.38;75.07;100803.97;5076906;27;45399;-66
2022/10/14 11:43:18;;;;;;;;;8.33;5.33;;;;;17.38;74.13;100801.34;5065351;28;45520;-65
2022/10/14 11:45:59;;;;;;;;;7.67;6.00;;;;;17.45;73.46;100804.72;5054154;28;45453;-66
2022/10/14 11:49:03;;;;;;;;;4.67;4.67;;;;;17.34;73.15;100798.81;5054344;28;45458;-65
2022/10/14 11:51:41;;;;;;;;;3.67;3.67;;;;;17.33;73.06;100800.59;5046957;27;45608;-67
2022/10/14 11:54:32;;;;;;;;;4.67;4.00;;;;;17.28;73.61;100796.31;5070438;28;45576;-66
2022/10/14 11:57:35;;;;;;;;;3.67;3.67;;;;;17.24;73.91;100782.28;5073090;28;45517;-66
2022/10/14 12:03:24;;;;;;;;;3.00;2.00;;;;;17.24;73.78;100778.78;5072987;28;45481;-66
2022/10/14 12:06:15;;;;;;;;;4.67;2.33;;;;;17.23;73.27;100766.47;5072025;28;45433;-66
2022/10/14 12:09:18;;;;;;;;;4.00;2.00;;;;;16.91;73.62;100753.09;5064374;28;45487;-67
2022/10/14 12:11:47;;;;;;;;;1.33;1.00;;;;;16.88;73.76;100761.09;5037069;28;45430;-67
2022/10/14 12:14:22;;;;;;;;;2.00;2.00;;;;;16.75;74.70;100749.91;5073592;28;45853;-66
2022/10/14 12:16:49;;;;;;;;;3.00;1.33;;;;;16.68;75.01;100745.69;5073356;28;45529;-67
2022/10/14 12:19:25;;;;;;;;;3.00;1.00;;;;;16.66;75.60;100744.84;5071381;28;45560;-67
2022/10/14 12:22:02;;;;;;;;;1.00;1.00;;;;;16.61;75.94;100736.16;5068512;28;45432;-68
2022/10/14 12:24:35;;;;;;;;;1.67;1.67;;;;;16.60;76.34;100734.38;5072415;28;45486;-67
2022/10/14 12:27:06;;;;;;;;;2.00;2.00;;;;;16.63;76.34;100742.25;5073239;28;45461;-68
2022/10/14 12:29:36;;;;;;;;;3.00;3.00;;;;;16.51;76.77;100730.19;5034218;28;45342;-69
2022/10/14 12:32:04;;;;;;;;;2.33;2.00;;;;;16.52;77.29;100731.06;5077532;28;45430;-67
2022/10/14 12:34:35;;;;;;;;;2.33;2.33;;;;;16.55;77.61;100725.69;5073293;27;45464;-69
2022/10/14 12:37:33;;;;;;;;;3.00;3.00;;;;;16.36;77.95;100705.88;5062050;28;45403;-68
2022/10/14 12:40:02;;;;;;;;;1.33;1.33;;;;;16.46;78.42;100705.63;5033685;28;45695;-67
2022/10/14 12:42:52;;;;;;;;;7.00;3.00;;;;;16.52;78.50;100696.69;5070909;27;45350;-66
2022/10/14 12:45:23;;;;;;;;;4.00;4.00;;;;;16.45;78.94;100688.03;5055066;28;45532;-64
2022/10/14 12:48:04;;;;;;;;;5.00;4.00;;;;;16.46;79.12;100695.03;5059469;28;45523;-65
2022/10/14 12:50:36;;;;;;;;;4.33;4.33;;;;;16.43;79.88;100673.97;5076811;27;45486;-66
2022/10/14 12:53:06;;;;;;;;;4.00;4.00;;;;;16.38;79.84;100667.06;5052292;28;47478;-67
2022/10/14 12:55:47;;;;;;;;;6.33;4.00;;;;;16.27;80.41;100662.88;5065359;28;45366;-66
2022/10/14 12:58:32;;;;;;;;;6.33;5.33;;;;;16.31;81.09;100667.19;5059405;28;45552;-66
2022/10/14 13:01:20;;;;;;;;;6.67;4.00;;;;;16.26;81.27;100660.28;5058486;28;45823;-67
2022/10/14 13:03:56;;;;;;;;;7.67;4.33;;;;;16.22;81.13;100630.41;5045933;28;47408;-67
2022/10/14 13:06:29;;;;;;;;;7.00;7.00;;;;;16.31;80.68;100647.84;5056952;28;45324;-67
2022/10/14 13:09:10;;;;;;;;;4.67;4.33;;;;;16.21;80.95;100648.97;5056207;28;45843;-67
2022/10/14 13:11:42;;;;;;;;;6.00;4.33;;;;;16.11;81.62;100646.50;5055361;28;45906;-67
2022/10/14 13:14:28;;;;;;;;;4.00;4.00;;;;;16.10;81.67;100636.84;5036706;28;47250;-66
2022/10/14 13:17:02;;;;;;;;;4.00;3.67;;;;;15.85;82.47;100625.94;5054709;28;45416;-66
2022/10/14 13:19:33;;;;;;;;;4.00;4.00;;;;;15.81;83.52;100620.78;5040650;28;46103;-66
2022/10/14 13:22:00;;;;;;;;;3.67;3.67;;;;;15.83;83.55;100621.59;5038582;28;45437;-66
2022/10/14 13:24:40;;;;;;;;;5.67;4.00;;;;;15.82;83.98;100617.22;5068802;28;45434;-66
2022/10/14 13:27:21;;;;;;;;;4.33;4.00;;;;;15.81;84.09;100611.06;5054320;27;45549;-68
2022/10/14 13:29:55;;;;;;;;;5.00;3.00;;;;;15.85;84.64;100604.81;5040659;28;45408;-67
2022/10/14 13:32:44;;;;;;;;;5.33;5.00;;;;;15.79;84.53;100585.59;5076139;28;45623;-67
2022/10/14 13:35:28;;;;;;;;;5.00;5.00;;;;;15.93;84.50;100591.44;5059534;28;47053;-68
2022/10/14 13:37:59;;;;;;;;;3.67;3.67;;;;;15.96;84.80;100586.09;5064988;28;45756;-68
2022/10/14 13:40:37;;;;;;;;;4.00;3.00;;;;;15.99;84.37;100579.84;5077238;27;45341;-66
2022/10/14 13:43:14;;;;;;;;;4.33;4.33;;;;;15.85;84.76;100564.31;5076103;27;45656;-67
2022/10/14 13:45:48;;;;;;;;;2.50;2.50;;;;;15.90;84.75;100571.25;5075273;27;45725;-65
2022/10/14 13:48:29;;;;;;;;;4.00;4.00;;;;;15.72;85.87;100547.88;5074309;28;45481;-67
2022/10/14 13:51:17;;;;;;;;;4.00;4.00;;;;;15.76;86.11;100561.91;5078028;27;45382;-66
2022/10/14 13:53:53;;;;;;;;;5.00;3.00;;;;;15.79;86.62;100556.56;5078241;27;45609;-68
2022/10/14 13:56:28;;;;;;;;;3.67;3.67;;;;;15.77;86.56;100561.84;5075302;28;46081;-67
2022/10/14 13:58:57;;;;;;;;;1.00;1.00;;;;;15.72;87.03;100553.16;5075533;28;45634;-66
2022/10/14 14:01:32;;;;;;;;;3.33;3.33;;;;;15.71;87.70;100547.91;5075795;27;45375;-66
2022/10/14 14:03:58;;;;;;;;;3.67;3.67;;;;;15.76;87.24;100546.06;5075869;28;45323;-67
2022/10/14 14:06:26;;;;;;;;;4.00;4.00;;;;;15.77;86.93;100534.59;5075346;27;46651;-66
2022/10/14 14:08:54;;;;;;;;;4.67;3.00;;;;;15.82;87.94;100535.34;5074123;28;45378;-66
2022/10/14 14:11:28;;;;;;;;;16.33;15.33;;;;;15.86;88.53;100523.81;5075770;28;45469;-67
2022/10/14 14:14:01;;;;;;;;;81.00;66.75;;;;;15.85;88.13;100516.78;5075565;27;45437;-67
2022/10/14 14:16:51;;;;;;;;;67.00;49.75;;;;;16.05;87.66;100530.41;5073597;27;47571;-67
2022/10/14 14:19:24;;;;;;;;;14.67;14.67;;;;;16.11;87.21;100529.38;5080074;28;45480;-67
2022/10/14 14:21:49;;;;;;;;;11.00;7.00;;;;;16.11;87.23;100514.41;5077388;27;45512;-67
2022/10/14 14:24:24;;;;;;;;;6.00;5.33;;;;;16.20;86.81;100520.38;5056913;28;45442;-67
2022/10/14 14:26:55;;;;;;;;;4.67;4.67;;;;;16.21;87.25;100514.19;5073469;27;47094;-66
2022/10/14 14:29:28;;;;;;;;;6.33;4.67;;;;;16.18;87.57;100503.66;5061208;28;45443;-67
2022/10/14 14:31:56;;;;;;;;;6.00;4.00;;;;;16.19;87.17;100495.72;5059981;27;45288;-67
2022/10/14 14:34:22;;;;;;;;;7.00;4.67;;;;;16.20;87.61;100483.38;5075785;28;45442;-66
2022/10/14 14:36:49;;;;;;;;;6.00;3.00;;;;;16.22;87.44;100478.91;5074676;28;46744;-67
2022/10/14 14:39:27;;;;;;;;;3.00;3.00;;;;;16.27;86.98;100477.88;5075390;28;45512;-66
2022/10/14 14:41:55;;;;;;;;;4.00;3.00;;;;;16.36;86.59;100478.56;5072595;28;45395;-67
2022/10/14 14:44:24;;;;;;;;;4.00;4.00;;;;;16.34;86.55;100468.03;5075735;27;45338;-68
2022/10/14 14:47:00;;;;;;;;;6.33;5.33;;;;;16.38;86.26;100474.97;5056902;28;46038;-66
2022/10/14 14:49:30;;;;;;;;;5.00;5.00;;;;;16.27;86.75;100437.38;5073637;28;45593;-66
2022/10/14 14:51:57;;;;;;;;;7.33;4.00;;;;;16.43;87.21;100459.00;5075109;28;45588;-67
2022/10/14 14:54:23;;;;;;;;;3.00;3.00;;;;;16.42;87.33;100450.22;5079733;27;45266;-66
2022/10/14 14:56:51;;;;;;;;;5.00;4.00;;;;;16.47;87.26;100445.66;5079103;28;46218;-65
2022/10/14 14:59:27;;;;;;;;;3.33;2.67;;;;;16.49;86.99;100437.66;5078061;28;45384;-65
2022/10/14 15:01:54;;;;;;;;;6.00;4.00;;;;;16.59;87.14;100454.19;5074916;28;45508;-66
2022/10/14 15:04:22;;;;;;;;;7.67;5.00;;;;;16.59;86.87;100441.81;5075317;28;45321;-67
2022/10/14 15:06:56;;;;;;;;;5.00;4.00;;;;;16.68;86.92;100445.97;5075249;28;46594;-67
2022/10/14 15:09:32;;;;;;;;;4.67;4.00;;;;;16.65;86.90;100427.53;5078484;27;45358;-66
2022/10/14 15:12:00;;;;;;;;;5.00;4.00;;;;;16.63;86.95;100417.00;5078622;28;45322;-67
2022/10/14 15:14:42;;;;;;;;;3.00;3.00;;;;;16.82;86.44;100427.97;5069121;28;45967;-67
2022/10/14 15:17:28;;;;;;;;;3.00;3.00;;;;;16.91;86.20;100430.34;5063921;28;46631;-68
2022/10/14 15:19:55;;;;;;;;;4.00;4.00;;;;;16.94;86.25;100426.75;5043899;28;45740;-69
2022/10/14 15:22:37;;;;;;;;;6.00;4.33;;;;;17.02;86.39;100424.75;5064527;27;45396;-67
2022/10/14 15:25:20;;;;;;;;;6.00;6.00;;;;;17.14;85.88;100418.22;5066057;28;45508;-69
2022/10/14 15:28:00;;;;;;;;;6.67;5.33;;;;;17.12;85.60;100390.94;5049886;28;46324;-67
2022/10/14 15:30:35;;;;;;;;;6.33;5.00;;;;;17.25;85.63;100402.91;5064844;28;45763;-67
2022/10/14 15:33:11;;;;;;;;;4.33;4.33;;;;;17.29;85.65;100401.00;5077820;28;45366;-67
2022/10/14 15:35:36;;;;;;;;;5.67;4.00;;;;;17.18;85.15;100377.53;5057285;28;45528;-67
2022/10/14 15:38:02;;;;;;;;;3.67;3.67;;;;;17.35;85.17;100406.97;5074236;28;46205;-67
2022/10/14 15:40:30;;;;;;;;;3.33;3.33;;;;;17.33;85.29;100400.88;5074725;27;45525;-66
2022/10/14 15:42:56;;;;;;;;;6.00;3.33;;;;;17.26;85.95;100387.88;5055984;28;45555;-67
2022/10/14 15:45:23;;;;;;;;;7.33;5.00;;;;;17.32;86.44;100401.78;5073408;28;45557;-69
2022/10/14 15:48:00;;;;;;;;;3.67;3.67;;;;;17.35;86.46;100401.69;5073814;28;46295;-68
2022/10/14 15:50:25;;;;;;;;;4.33;4.00;;;;;17.42;86.19;100402.38;5077514;28;45311;-67
2022/10/14 15:52:53;;;;;;;;;3.67;3.00;;;;;17.47;86.09;100388.97;5074296;28;45401;-67
2022/10/14 15:55:29;;;;;;;;;3.67;3.67;;;;;17.50;85.89;100400.31;5057095;28;45485;-66
2022/10/14 15:57:56;;;;;;;;;6.33;5.00;;;;;17.49;85.91;100403.91;5076735;28;45570;-67
2022/10/14 16:00:23;;;;;;;;;5.00;4.00;;;;;17.52;86.29;100393.19;5078736;28;45438;-67
2022/10/14 16:02:57;;;;;;;;;4.00;4.00;;;;;17.52;86.26;100395.00;5078090;28;45451;-67
2022/10/14 16:05:24;;;;;;;;;4.00;3.00;;;;;17.53;85.34;100388.78;5060606;28;45601;-68
2022/10/14 16:07:51;;;;;;;;;1.67;1.67;;;;;17.58;85.23;100387.72;5076310;28;46447;-67
2022/10/14 16:10:19;;;;;;;;;3.00;3.00;;;;;17.63;85.01;100390.22;5074794;27;45905;-67
2022/10/14 16:12:45;;;;;;;;;5.00;3.33;;;;;17.64;85.76;100385.78;5074573;28;45288;-66
2022/10/14 16:15:16;;;;;;;;;6.00;3.33;;;;;17.58;87.13;100381.53;5056462;28;45609;-67
2022/10/14 16:17:42;;;;;;;;;4.00;4.00;;;;;17.53;87.61;100378.19;5074557;28;46275;-66
2022/10/14 16:20:08;;;;;;;;;4.67;4.67;;;;;17.50;87.18;100370.34;5076718;28;45544;-66
2022/10/14 16:22:34;;;;;;;;;3.00;3.00;;;;;17.54;86.30;100362.25;5073683;27;45314;-66
2022/10/14 16:24:59;;;;;;;;;5.00;3.00;;;;;17.62;86.69;100371.72;5076468;28;45367;-68
2022/10/14 16:27:25;;;;;;;;;2.00;2.00;;;;;17.66;87.01;100368.06;5077818;28;46072;-67
2022/10/14 16:29:51;;;;;;;;;3.67;2.67;;;;;17.64;86.98;100364.59;5076111;27;45545;-68
2022/10/14 16:32:16;;;;;;;;;2.00;2.00;;;;;17.77;86.05;100380.03;5072350;27;45522;-68
2022/10/14 16:34:42;;;;;;;;;2.33;2.33;;;;;17.80;85.33;100376.41;5074077;28;45513;-67
2022/10/14 16:37:08;;;;;;;;;3.67;3.00;;;;;17.92;85.18;100380.47;5073035;28;45798;-68
2022/10/14 16:39:33;;;;;;;;;4.00;2.00;;;;;17.93;84.72;100371.59;5073807;28;45562;-68
2022/10/14 16:41:59;;;;;;;;;5.00;2.33;;;;;17.96;85.22;100371.47;5073456;27;45463;-69
2022/10/14 16:44:26;;;;;;;;;5.33;5.00;;;;;17.95;85.90;100367.97;5072607;28;45964;-68
2022/10/14 16:49:45;;;;;;;;;4.00;4.00;;;;;17.93;85.88;100366.28;5066798;28;45977;-69
2022/10/14 16:52:14;;;;;;;;;5.00;4.67;;;;;17.81;86.42;100349.03;5059337;28;45438;-68
2022/10/14 16:54:40;;;;;;;;;4.67;3.67;;;;;17.75;88.12;100350.09;5053915;28;45442;-66
2022/10/14 16:57:06;;;;;;;;;6.67;5.00;;;;;17.58;86.97;100323.28;5065581;28;45615;-68
2022/10/14 16:59:33;;;;;;;;;7.33;4.67;;;;;17.80;87.76;100357.88;5072248;28;45481;-70
2022/10/14 17:02:00;;;;;;;;;4.00;4.00;;;;;17.80;87.09;100364.06;5072903;28;46257;-68
2022/10/14 17:04:28;;;;;;;;;3.33;3.33;;;;;17.83;86.70;100364.88;5052964;28;45548;-70
2022/10/14 17:07:05;;;;;;;;;384.25;304.75;;;;;17.77;88.42;100352.66;5070502;28;46898;-68
2022/10/14 17:09:33;;;;;;;;;675.40;498.00;;;;;17.79;88.02;100350.81;5073252;28;45430;-69
2022/10/14 17:12:11;;;;;;;;;431.80;342.00;;;;;17.78;87.45;100360.56;5073858;28;45427;-67
2022/10/14 17:14:37;;;;;;;;;207.75;167.75;;;;;17.86;87.01;100365.63;5074477;28;45488;-67
2022/10/14 17:17:04;;;;;;;;;105.50;82.00;;;;;17.88;87.08;100357.63;5055138;28;47657;-68
2022/10/14 17:19:35;;;;;;;;;65.00;50.50;;;;;17.87;87.19;100363.84;5074488;27;45484;-67
2022/10/14 17:22:08;;;;;;;;;48.25;39.00;;;;;17.81;87.21;100370.22;5055103;28;45430;-67
2022/10/14 17:24:34;;;;;;;;;39.00;32.50;;;;;17.83;86.88;100362.22;5055384;28;45511;-66
2022/10/14 17:27:03;;;;;;;;;23.00;17.33;;;;;17.87;87.17;100366.50;5072864;27;46218;-67
2022/10/14 17:29:33;;;;;;;;;15.00;10.67;;;;;17.75;86.66;100351.88;5074101;27;45551;-68
2022/10/14 17:32:00;;;;;;;;;9.33;9.33;;;;;17.89;87.10;100383.19;5073497;28;45507;-67
2022/10/14 17:34:30;;;;;;;;;8.33;8.33;;;;;17.88;86.90;100387.63;5065976;27;45528;-66
2022/10/14 17:37:00;;;;;;;;;7.33;7.33;;;;;17.83;87.17;100379.00;5068048;28;45723;-68
2022/10/14 17:39:27;;;;;;;;;12.00;7.33;;;;;17.79;86.80;100375.53;5041539;28;45856;-65